Time;durP1;ratioP1;P1;durP2;ratioP2;P2;SDS_P1;SDS_P2;PMS_P1;PMS_P2;Temp;Humidity;BMP_temperature;BMP_pressure;BME280_temperature;BME280_humidity;BME280_pressure;Samples;Min_cycle;Max_cycle;Signal;HPM_P1;HPM_P2
2024/03/11 00:01:12;;;;;;;;;;;7.50;99.90;;;;;;5031046;28;19909;-58
2024/03/11 00:03:38;;;;;;;;;;;7.60;99.90;;;;;;5032495;28;19939;-59
2024/03/11 00:06:04;;;;;;;;;;;7.50;99.90;;;;;;5042607;28;20356;-59
2024/03/11 00:08:31;;;;;;;;;;;7.50;99.90;;;;;;5049023;28;19913;-58
2024/03/11 00:10:59;;;;;;;;;;;7.50;99.90;;;;;;5030883;28;19909;-58
2024/03/11 00:13:32;;;;;;;;;;;7.40;99.90;;;;;;5030642;28;19909;-60
2024/03/11 00:15:59;;;;;;;;;;;7.50;99.90;;;;;;5035223;28;20250;-59
2024/03/11 00:18:24;;;;;;;;;;;7.50;99.90;;;;;;5041884;28;19992;-59
2024/03/11 00:20:50;;;;;;;;;;;7.40;99.90;;;;;;5038705;28;20005;-58
2024/03/11 00:23:16;;;;;;;;;;;7.40;99.90;;;;;;5030476;28;20353;-59
2024/03/11 00:25:43;;;;;;;;;;;7.40;99.90;;;;;;5030242;28;19915;-58
2024/03/11 00:28:08;;;;;;;;;;;7.40;99.90;;;;;;5044388;28;19992;-58
2024/03/11 00:30:35;;;;;;;;;;;7.50;99.90;;;;;;5032348;28;20004;-59
2024/03/11 00:33:02;;;;;;;;;;;7.50;99.90;;;;;;5038955;28;20276;-59
2024/03/11 00:35:28;;;;;;;;;;;7.50;99.90;;;;;;5030294;28;19952;-58
2024/03/11 00:37:53;;;;;;;;;;;7.50;99.90;;;;;;5033714;28;19951;-59
2024/03/11 00:40:19;;;;;;;;;;;7.50;99.90;;;;;;5034494;28;20035;-58
2024/03/11 00:42:45;;;;;;;;;;;7.40;99.90;;;;;;5030245;28;19917;-57
2024/03/11 00:45:11;;;;;;;;;;;7.40;99.90;;;;;;5029952;28;19916;-58
2024/03/11 00:47:39;;;;;;;;;;;7.40;99.90;;;;;;5039441;28;19996;-58
2024/03/11 00:50:06;;;;;;;;;;;7.40;99.90;;;;;;5036426;28;19912;-59
2024/03/11 00:52:35;;;;;;;;;;;7.40;99.90;;;;;;5030052;28;19909;-59
2024/03/11 00:55:00;;;;;;;;;;;7.40;99.90;;;;;;5038302;28;20261;-58
2024/03/11 00:57:26;;;;;;;;;;;7.40;99.90;;;;;;5038156;28;19920;-59
2024/03/11 00:59:52;;;;;;;;;;;7.40;99.90;;;;;;5023151;28;19944;-59
2024/03/11 01:02:18;;;;;;;;;;;7.40;99.90;;;;;;5034530;28;19991;-59
2024/03/11 01:04:45;;;;;;;;;;;7.40;99.90;;;;;;5030011;28;20359;-58
2024/03/11 01:07:10;;;;;;;;;;;7.40;99.90;;;;;;5035893;28;20289;-57
2024/03/11 01:09:36;;;;;;;;;;;7.40;99.90;;;;;;5039458;28;19916;-58
2024/03/11 01:12:01;;;;;;;;;;;7.40;99.90;;;;;;5029875;28;20349;-60
2024/03/11 01:14:27;;;;;;;;;;;7.40;99.90;;;;;;5029919;28;19917;-59
2024/03/11 01:16:52;;;;;;;;;;;7.40;99.90;;;;;;5037742;28;19909;-59
2024/03/11 01:19:20;;;;;;;;;;;7.40;99.90;;;;;;5037625;28;19955;-58
2024/03/11 01:21:48;;;;;;;;;;;7.40;99.90;;;;;;5049062;28;19961;-59
2024/03/11 01:24:13;;;;;;;;;;;7.40;99.90;;;;;;5041432;28;19915;-58
2024/03/11 01:26:39;;;;;;;;;;;7.50;99.90;;;;;;5041215;28;19909;-58
2024/03/11 01:29:04;;;;;;;;;;;7.50;99.90;;;;;;5049217;28;20376;-59
2024/03/11 01:31:31;;;;;;;;;;;7.50;99.90;;;;;;5041469;28;20004;-59
2024/03/11 01:33:57;;;;;;;;;;;7.50;99.90;;;;;;5041507;28;19920;-58
2024/03/11 01:36:22;;;;;;;;;;;7.50;99.90;;;;;;5041029;28;19913;-60
2024/03/11 01:38:48;;;;;;;;;;;7.50;99.90;;;;;;5032369;28;19919;-59
2024/03/11 01:41:14;;;;;;;;;;;7.40;99.90;;;;;;5025084;28;19924;-57
2024/03/11 01:43:40;;;;;;;;;;;7.40;99.90;;;;;;5031641;28;19917;-56
2024/03/11 01:46:06;;;;;;;;;;;7.40;99.90;;;;;;5041365;28;19912;-58
2024/03/11 01:48:32;;;;;;;;;;;7.40;99.90;;;;;;5032429;28;19911;-59
2024/03/11 01:50:58;;;;;;;;;;;7.40;99.90;;;;;;5041150;28;19916;-56
2024/03/11 01:53:24;;;;;;;;;;;7.40;99.90;;;;;;5049420;28;19909;-57
2024/03/11 01:55:51;;;;;;;;;;;7.40;99.90;;;;;;5032858;28;19905;-59
2024/03/11 01:58:18;;;;;;;;;;;7.30;99.90;;;;;;5022851;28;20515;-58
2024/03/11 02:00:45;;;;;;;;;;;7.40;99.90;;;;;;5041083;28;20274;-56
2024/03/11 02:03:11;;;;;;;;;;;7.40;99.90;;;;;;5041140;28;19946;-59
2024/03/11 02:05:40;;;;;;;;;;;7.40;99.90;;;;;;5039329;28;20457;-58
2024/03/11 02:08:06;;;;;;;;;;;7.40;99.90;;;;;;5042668;28;19920;-58
2024/03/11 02:10:31;;;;;;;;;;;7.40;99.90;;;;;;5033539;28;19909;-59
2024/03/11 02:12:58;;;;;;;;;;;7.40;99.90;;;;;;5049297;28;19913;-59
2024/03/11 02:15:24;;;;;;;;;;;7.40;99.90;;;;;;5032946;28;20427;-57
2024/03/11 02:17:50;;;;;;;;;;;7.40;99.90;;;;;;5032467;28;19905;-58
2024/03/11 02:20:16;;;;;;;;;;;7.40;99.90;;;;;;5039705;28;19904;-58
2024/03/11 02:22:49;;;;;;;;;;;7.40;99.90;;;;;;5033954;28;20384;-58
2024/03/11 02:25:15;;;;;;;;;;;7.40;99.90;;;;;;5047692;28;20038;-57
2024/03/11 02:27:41;;;;;;;;;;;7.40;99.90;;;;;;5033567;28;19913;-57
2024/03/11 02:30:10;;;;;;;;;;;7.40;99.90;;;;;;5032950;28;19920;-59
2024/03/11 02:32:36;;;;;;;;;;;7.40;99.90;;;;;;5041476;28;19905;-57
2024/03/11 02:35:03;;;;;;;;;;;7.40;99.90;;;;;;5032586;28;19959;-58
2024/03/11 02:37:28;;;;;;;;;;;7.40;99.90;;;;;;5049279;28;19916;-60
2024/03/11 02:39:55;;;;;;;;;;;7.40;99.90;;;;;;5052173;28;19909;-60
2024/03/11 02:42:20;;;;;;;;;;;7.40;99.90;;;;;;5036880;28;19909;-59
2024/03/11 02:44:48;;;;;;;;;;;7.40;99.90;;;;;;5040475;28;19932;-58
2024/03/11 02:47:14;;;;;;;;;;;7.40;99.90;;;;;;5039059;28;19936;-60
2024/03/11 02:49:39;;;;;;;;;;;7.40;99.90;;;;;;5033395;28;19908;-59
2024/03/11 02:52:06;;;;;;;;;;;7.40;99.90;;;;;;5045798;28;19916;-58
2024/03/11 02:54:32;;;;;;;;;;;7.40;99.90;;;;;;5043081;28;19995;-59
2024/03/11 02:56:57;;;;;;;;;;;7.40;99.90;;;;;;5040626;28;20000;-59
2024/03/11 02:59:24;;;;;;;;;;;7.40;99.90;;;;;;5039605;28;19912;-58
2024/03/11 03:01:50;;;;;;;;;;;7.30;99.90;;;;;;5043970;28;19994;-59
2024/03/11 03:04:18;;;;;;;;;;;7.40;99.90;;;;;;5036920;28;19913;-58
2024/03/11 03:06:44;;;;;;;;;;;7.40;99.90;;;;;;5039953;28;19917;-57
2024/03/11 03:09:10;;;;;;;;;;;7.40;99.90;;;;;;5031556;28;19975;-58
2024/03/11 03:11:36;;;;;;;;;;;7.40;99.90;;;;;;5048679;28;20364;-59
2024/03/11 03:14:01;;;;;;;;;;;7.40;99.90;;;;;;5031921;28;19909;-56
2024/03/11 03:16:27;;;;;;;;;;;7.40;99.90;;;;;;5031681;28;19917;-56
2024/03/11 03:18:54;;;;;;;;;;;7.40;99.90;;;;;;5039687;28;20369;-58
2024/03/11 03:21:21;;;;;;;;;;;7.40;99.90;;;;;;5031621;28;20388;-58
2024/03/11 03:23:47;;;;;;;;;;;7.40;99.90;;;;;;5039276;28;19999;-56
2024/03/11 03:26:13;;;;;;;;;;;7.40;99.90;;;;;;5031743;28;20409;-59
2024/03/11 03:28:38;;;;;;;;;;;7.50;99.90;;;;;;5032647;28;19909;-59
2024/03/11 03:31:04;;;;;;;;;;;7.40;99.90;;;;;;5038252;28;19917;-55
2024/03/11 03:33:30;;;;;;;;;;;7.40;99.90;;;;;;5039868;28;19920;-58
2024/03/11 03:35:57;;;;;;;;;;;7.40;99.90;;;;;;5031473;28;19913;-55
2024/03/11 03:38:23;;;;;;;;;;;7.40;99.90;;;;;;5038691;28;20391;-58
2024/03/11 03:40:48;;;;;;;;;;;7.30;99.90;;;;;;5040232;28;19913;-59
2024/03/11 03:43:14;;;;;;;;;;;7.30;99.90;;;;;;5031322;28;20613;-58
2024/03/11 03:45:39;;;;;;;;;;;7.30;99.90;;;;;;5041342;28;19920;-58
2024/03/11 03:48:06;;;;;;;;;;;7.30;99.90;;;;;;5050706;28;20396;-58
2024/03/11 03:50:31;;;;;;;;;;;7.30;99.90;;;;;;5034419;28;20292;-59
2024/03/11 03:52:58;;;;;;;;;;;7.30;99.90;;;;;;5038766;28;19921;-58
2024/03/11 03:55:24;;;;;;;;;;;7.30;99.90;;;;;;5039361;28;19943;-55
2024/03/11 03:57:49;;;;;;;;;;;7.30;99.90;;;;;;5020724;28;19913;-57
2024/03/11 04:00:16;;;;;;;;;;;7.30;99.90;;;;;;5031110;28;19905;-56
2024/03/11 04:02:42;;;;;;;;;;;7.30;99.90;;;;;;5049404;28;19912;-60
2024/03/11 04:05:09;;;;;;;;;;;7.30;99.90;;;;;;5045102;28;19913;-58
2024/03/11 04:07:35;;;;;;;;;;;7.30;99.90;;;;;;5030506;28;19909;-60
2024/03/11 04:10:00;;;;;;;;;;;7.30;99.90;;;;;;5039275;28;20111;-57
2024/03/11 04:12:26;;;;;;;;;;;7.30;99.90;;;;;;5038974;28;19913;-56
2024/03/11 04:14:51;;;;;;;;;;;7.30;99.90;;;;;;5030762;28;19960;-59
2024/03/11 04:17:17;;;;;;;;;;;7.40;99.90;;;;;;5038919;28;19971;-57
2024/03/11 04:19:43;;;;;;;;;;;7.40;99.90;;;;;;5030158;28;19913;-57
2024/03/11 04:22:11;;;;;;;;;;;7.40;99.90;;;;;;5039020;28;19916;-59
2024/03/11 04:24:36;;;;;;;;;;;7.40;99.90;;;;;;5038804;28;19912;-59
2024/03/11 04:27:02;;;;;;;;;;;7.40;99.90;;;;;;5038620;28;20273;-59
2024/03/11 04:29:27;;;;;;;;;;;7.30;99.90;;;;;;5038295;28;19948;-58
2024/03/11 04:31:53;;;;;;;;;;;7.30;99.90;;;;;;5038902;28;20302;-58
2024/03/11 04:34:20;;;;;;;;;;;7.30;99.90;;;;;;5038524;28;19913;-58
2024/03/11 04:36:46;;;;;;;;;;;7.30;99.90;;;;;;5038757;28;19917;-58
2024/03/11 04:39:14;;;;;;;;;;;7.30;99.90;;;;;;5044344;28;19909;-60
2024/03/11 04:41:42;;;;;;;;;;;7.30;99.90;;;;;;5031990;28;19913;-57
2024/03/11 04:44:11;;;;;;;;;;;7.40;99.90;;;;;;5038321;28;20409;-57
2024/03/11 04:46:38;;;;;;;;;;;7.40;99.90;;;;;;5030065;28;20443;-58
2024/03/11 04:49:05;;;;;;;;;;;7.40;99.90;;;;;;5029717;28;20444;-58
2024/03/11 04:51:31;;;;;;;;;;;7.40;99.90;;;;;;5038344;28;19954;-59
2024/03/11 04:53:57;;;;;;;;;;;7.40;99.90;;;;;;5030206;28;20296;-59
2024/03/11 04:56:22;;;;;;;;;;;7.40;99.90;;;;;;5030081;28;20435;-58
2024/03/11 04:58:48;;;;;;;;;;;7.40;99.90;;;;;;5037800;28;19913;-58
2024/03/11 05:01:13;;;;;;;;;;;7.40;99.90;;;;;;5038462;28;19958;-60
2024/03/11 05:03:39;;;;;;;;;;;7.40;99.90;;;;;;5039609;28;20292;-57
2024/03/11 05:06:04;;;;;;;;;;;7.40;99.90;;;;;;5041600;28;20380;-60
2024/03/11 05:08:30;;;;;;;;;;;7.40;99.90;;;;;;5040884;28;19908;-60
2024/03/11 05:10:55;;;;;;;;;;;7.40;99.90;;;;;;5041810;28;20414;-59
2024/03/11 05:13:21;;;;;;;;;;;7.40;99.90;;;;;;5042592;28;19956;-59
2024/03/11 05:15:47;;;;;;;;;;;7.40;99.90;;;;;;5038105;28;19940;-57
2024/03/11 05:18:13;;;;;;;;;;;7.40;99.90;;;;;;5043613;28;19913;-58
2024/03/11 05:20:39;;;;;;;;;;;7.40;99.90;;;;;;5041711;28;19962;-60
2024/03/11 05:23:06;;;;;;;;;;;7.40;99.90;;;;;;5044719;28;19913;-58
2024/03/11 05:25:32;;;;;;;;;;;7.40;99.90;;;;;;5038100;28;19982;-59
2024/03/11 05:27:58;;;;;;;;;;;7.30;99.90;;;;;;5028916;28;20004;-60
2024/03/11 05:30:24;;;;;;;;;;;7.30;99.90;;;;;;5029667;28;19909;-59
2024/03/11 05:32:49;;;;;;;;;;;7.30;99.90;;;;;;5029815;28;19913;-58
2024/03/11 05:35:16;;;;;;;;;;;7.30;99.90;;;;;;5029573;28;19963;-60
2024/03/11 05:37:41;;;;;;;;;;;7.30;99.90;;;;;;5039573;28;19912;-60
2024/03/11 05:40:11;;;;;;;;;;;7.20;99.90;;;;;;5036044;28;19931;-59
2024/03/11 05:42:40;;;;;;;;;;;7.20;99.90;;;;;;5045836;28;20372;-60
2024/03/11 05:45:06;;;;;;;;;;;7.20;99.90;;;;;;5040374;28;19928;-58
2024/03/11 05:47:32;;;;;;;;;;;7.30;99.90;;;;;;5036928;28;20220;-57
2024/03/11 05:49:57;;;;;;;;;;;7.30;99.90;;;;;;5040755;28;20016;-61
2024/03/11 05:52:26;;;;;;;;;;;7.30;99.90;;;;;;5033462;28;19905;-58
2024/03/11 05:54:56;;;;;;;;;;;7.30;99.90;;;;;;5041580;28;19920;-60
2024/03/11 05:57:25;;;;;;;;;;;7.20;99.90;;;;;;5033373;28;19909;-60
2024/03/11 05:59:51;;;;;;;;;;;7.20;99.90;;;;;;5032622;28;20349;-58
2024/03/11 06:02:17;;;;;;;;;;;7.20;99.90;;;;;;5033378;28;20088;-59
2024/03/11 06:04:43;;;;;;;;;;;7.20;99.90;;;;;;5033211;28;19909;-58
2024/03/11 06:07:09;;;;;;;;;;;7.20;99.90;;;;;;5033095;28;20000;-61
2024/03/11 06:09:37;;;;;;;;;;;7.20;99.90;;;;;;5032635;28;19913;-60
2024/03/11 06:12:03;;;;;;;;;;;7.20;99.90;;;;;;5033162;28;19912;-58
2024/03/11 06:14:28;;;;;;;;;;;7.30;99.90;;;;;;5032871;28;19912;-59
2024/03/11 06:16:54;;;;;;;;;;;7.20;99.90;;;;;;5044532;28;19921;-58
2024/03/11 06:19:20;;;;;;;;;;;7.20;99.90;;;;;;5036976;28;19905;-59
2024/03/11 06:21:48;;;;;;;;;;;7.20;99.90;;;;;;5039833;28;19905;-59
2024/03/11 06:24:14;;;;;;;;;;;7.20;99.90;;;;;;5032708;28;19913;-59
2024/03/11 06:26:40;;;;;;;;;;;7.20;99.90;;;;;;5042369;28;19991;-58
2024/03/11 06:29:08;;;;;;;;;;;7.20;99.90;;;;;;5038983;28;20040;-60
2024/03/11 06:31:34;;;;;;;;;;;7.20;99.90;;;;;;5032749;28;19954;-60
2024/03/11 06:34:02;;;;;;;;;;;7.20;99.90;;;;;;5032718;28;19996;-59
2024/03/11 06:36:28;;;;;;;;;;;7.20;99.90;;;;;;5040774;28;19920;-59
2024/03/11 06:38:53;;;;;;;;;;;7.10;99.90;;;;;;5040406;28;20370;-60
2024/03/11 06:41:19;;;;;;;;;;;7.10;99.90;;;;;;5032527;28;20007;-58
2024/03/11 06:43:44;;;;;;;;;;;7.00;99.90;;;;;;5032212;28;19917;-60
2024/03/11 06:46:13;;;;;;;;;;;7.00;99.90;;;;;;5020612;28;19920;-58
2024/03/11 06:48:40;;;;;;;;;;;7.00;99.90;;;;;;5042079;28;20029;-60
2024/03/11 06:51:07;;;;;;;;;;;7.00;99.90;;;;;;5037480;28;19913;-59
2024/03/11 06:53:33;;;;;;;;;;;7.00;99.90;;;;;;5042858;28;19928;-60
2024/03/11 06:56:00;;;;;;;;;;;7.00;99.90;;;;;;5037609;28;19920;-58
2024/03/11 06:58:26;;;;;;;;;;;6.90;99.90;;;;;;5037494;28;20284;-58
2024/03/11 07:00:52;;;;;;;;;;;6.90;99.90;;;;;;5034926;28;20344;-59
2024/03/11 07:03:17;;;;;;;;;;;6.80;99.90;;;;;;5036605;28;19975;-57
2024/03/11 07:05:43;;;;;;;;;;;6.70;99.90;;;;;;5039492;28;19909;-57
2024/03/11 07:08:09;;;;;;;;;;;6.70;99.90;;;;;;5039222;28;19955;-58
2024/03/11 07:10:37;;;;;;;;;;;6.80;99.90;;;;;;5048372;28;19912;-56
2024/03/11 07:13:04;;;;;;;;;;;6.80;99.90;;;;;;5039575;28;19953;-57
2024/03/11 07:15:29;;;;;;;;;;;6.80;99.90;;;;;;5031292;28;19960;-59
2024/03/11 07:17:54;;;;;;;;;;;6.80;99.90;;;;;;5034290;28;19952;-57
2024/03/11 07:20:23;;;;;;;;;;;6.70;99.90;;;;;;5042987;28;19962;-60
2024/03/11 07:22:49;;;;;;;;;;;6.70;99.90;;;;;;5041683;28;19923;-59
2024/03/11 07:25:17;;;;;;;;;;;6.70;99.90;;;;;;5042729;28;19913;-58
2024/03/11 07:27:47;;;;;;;;;;;6.70;99.90;;;;;;5048605;28;19931;-59
2024/03/11 07:30:13;;;;;;;;;;;6.70;99.90;;;;;;5037095;28;19940;-58
2024/03/11 07:32:38;;;;;;;;;;;6.60;99.90;;;;;;5049659;28;19940;-59
2024/03/11 07:35:04;;;;;;;;;;;6.70;99.90;;;;;;5039329;28;19975;-60
2024/03/11 07:37:30;;;;;;;;;;;6.70;99.90;;;;;;5030611;28;19916;-59
2024/03/11 07:39:56;;;;;;;;;;;6.80;99.90;;;;;;5030222;28;19985;-59
2024/03/11 07:42:22;;;;;;;;;;;6.80;99.90;;;;;;5031117;28;19959;-60
2024/03/11 07:44:48;;;;;;;;;;;6.80;99.90;;;;;;5030485;28;20015;-58
2024/03/11 07:47:14;;;;;;;;;;;6.80;99.90;;;;;;5045145;28;19912;-59
2024/03/11 07:49:39;;;;;;;;;;;6.80;99.90;;;;;;5040783;28;19913;-59
2024/03/11 07:52:06;;;;;;;;;;;6.80;99.90;;;;;;5043448;28;19916;-60
2024/03/11 07:54:32;;;;;;;;;;;6.70;99.90;;;;;;5033660;28;19909;-60
2024/03/11 07:56:57;;;;;;;;;;;6.70;99.90;;;;;;5030712;28;19916;-58
2024/03/11 07:59:23;;;;;;;;;;;6.70;99.90;;;;;;5038424;28;19913;-59
2024/03/11 08:01:48;;;;;;;;;;;6.70;99.90;;;;;;5041072;28;19913;-60
2024/03/11 08:04:14;;;;;;;;;;;6.70;99.90;;;;;;5036084;28;19936;-61
2024/03/11 08:06:39;;;;;;;;;;;6.60;99.90;;;;;;5029835;28;20290;-59
2024/03/11 08:09:07;;;;;;;;;;;6.70;99.90;;;;;;5042547;28;19959;-61
2024/03/11 08:11:35;;;;;;;;;;;6.70;99.90;;;;;;5033552;28;20369;-59
2024/03/11 08:14:02;;;;;;;;;;;6.70;99.90;;;;;;5038388;28;20377;-58
2024/03/11 08:16:28;;;;;;;;;;;6.60;99.90;;;;;;5038366;28;19995;-59
2024/03/11 08:18:53;;;;;;;;;;;6.50;99.90;;;;;;5038003;28;20012;-60
2024/03/11 08:21:20;;;;;;;;;;;6.50;99.90;;;;;;5036597;28;19919;-59
2024/03/11 08:23:46;;;;;;;;;;;6.50;99.90;;;;;;5039455;28;19937;-59
2024/03/11 08:26:11;;;;;;;;;;;6.60;99.90;;;;;;5038512;28;19999;-59
2024/03/11 08:28:39;;;;;;;;;;;6.60;99.90;;;;;;5029356;28;19913;-58
2024/03/11 08:31:07;;;;;;;;;;;6.70;99.90;;;;;;5034665;28;19913;-60
2024/03/11 08:33:34;;;;;;;;;;;6.70;99.90;;;;;;5033008;28;20340;-60
2024/03/11 08:36:01;;;;;;;;;;;6.80;99.90;;;;;;5041997;28;19951;-59
2024/03/11 08:38:28;;;;;;;;;;;6.80;99.90;;;;;;5033370;28;19913;-59
2024/03/11 08:40:53;;;;;;;;;;;6.90;99.90;;;;;;5032754;28;20303;-60
2024/03/11 08:43:19;;;;;;;;;;;6.90;99.90;;;;;;5034433;28;19920;-60
2024/03/11 08:45:45;;;;;;;;;;;6.90;99.90;;;;;;5037751;28;19917;-60
2024/03/11 08:48:13;;;;;;;;;;;7.10;99.90;;;;;;5037578;28;19945;-61
2024/03/11 08:50:39;;;;;;;;;;;7.20;99.90;;;;;;5029266;28;20249;-60
2024/03/11 08:53:06;;;;;;;;;;;7.20;99.90;;;;;;5029741;28;19909;-60
2024/03/11 08:55:34;;;;;;;;;;;7.30;99.90;;;;;;5037689;28;19909;-61
2024/03/11 08:58:00;;;;;;;;;;;7.30;99.90;;;;;;5029294;28;19929;-60
2024/03/11 09:00:27;;;;;;;;;;;7.20;99.90;;;;;;5037791;28;19916;-60
2024/03/11 09:02:54;;;;;;;;;;;7.20;99.90;;;;;;5029172;28;19917;-60
2024/03/11 09:05:22;;;;;;;;;;;7.20;99.90;;;;;;5044267;28;19924;-60
2024/03/11 09:07:48;;;;;;;;;;;7.20;99.90;;;;;;5038145;28;19916;-60
2024/03/11 09:10:14;;;;;;;;;;;7.20;99.90;;;;;;5037686;28;19923;-60
2024/03/11 09:12:40;;;;;;;;;;;7.20;99.90;;;;;;5037376;28;19909;-59
2024/03/11 09:15:12;;;;;;;;;;;7.10;99.90;;;;;;5029356;28;19909;-58
2024/03/11 09:17:39;;;;;;;;;;;7.20;99.90;;;;;;5028552;28;19905;-60
2024/03/11 09:20:05;;;;;;;;;;;7.20;99.90;;;;;;5028681;28;19980;-60
2024/03/11 09:22:33;;;;;;;;;;;7.20;99.90;;;;;;5045929;28;19909;-60
2024/03/11 09:24:59;;;;;;;;;;;7.20;99.90;;;;;;5045499;28;19909;-60
2024/03/11 09:27:26;;;;;;;;;;;7.30;99.90;;;;;;5044668;28;20018;-59
2024/03/11 09:29:51;;;;;;;;;;;7.30;99.90;;;;;;5029229;28;20447;-60
2024/03/11 09:32:17;;;;;;;;;;;7.50;99.90;;;;;;5029129;28;19913;-60
2024/03/11 09:34:42;;;;;;;;;;;7.60;99.90;;;;;;5037144;28;20399;-58
2024/03/11 09:37:08;;;;;;;;;;;7.70;99.90;;;;;;5029109;28;19924;-60
2024/03/11 09:39:34;;;;;;;;;;;7.70;99.90;;;;;;5037230;28;19955;-60
2024/03/11 09:42:05;;;;;;;;;;;7.80;99.90;;;;;;5033272;28;19909;-58
2024/03/11 09:44:30;;;;;;;;;;;7.80;99.90;;;;;;5040646;28;19923;-60
2024/03/11 09:47:00;;;;;;;;;;;7.90;99.90;;;;;;5028939;28;19913;-60
2024/03/11 09:49:25;;;;;;;;;;;8.00;99.90;;;;;;5036249;28;20431;-58
2024/03/11 09:51:53;;;;;;;;;;;8.00;99.90;;;;;;5029732;28;19909;-60
2024/03/11 09:54:20;;;;;;;;;;;8.00;99.90;;;;;;5028299;28;19920;-58
2024/03/11 09:56:47;;;;;;;;;;;8.10;99.90;;;;;;5039235;28;19909;-60
2024/03/11 09:59:20;;;;;;;;;;;8.20;99.90;;;;;;5034593;28;20048;-61
2024/03/11 10:01:52;;;;;;;;;;;8.20;99.90;;;;;;5037395;28;19967;-60
2024/03/11 10:04:20;;;;;;;;;;;8.00;99.90;;;;;;5043341;28;19930;-61
2024/03/11 10:06:58;;;;;;;;;;;8.10;99.90;;;;;;5040177;28;19998;-60
2024/03/11 10:09:24;;;;;;;;;;;8.10;99.90;;;;;;5041329;28;20024;-59
2024/03/11 10:12:03;;;;;;;;;;;8.20;99.90;;;;;;5039327;28;20436;-60
2024/03/11 10:14:34;;;;;;;;;;;8.20;99.90;;;;;;5048842;28;19970;-60
2024/03/11 10:17:17;;;;;;;;;;;8.20;99.90;;;;;;5044887;28;19916;-60
2024/03/11 10:19:54;;;;;;;;;;;8.20;99.90;;;;;;5036427;28;19916;-60
2024/03/11 10:22:23;;;;;;;;;;;8.30;99.90;;;;;;5029414;28;19952;-59
2024/03/11 10:24:52;;;;;;;;;;;8.30;99.90;;;;;;5036941;28;19917;-61
2024/03/11 10:27:22;;;;;;;;;;;8.40;99.90;;;;;;5036954;28;19928;-55
2024/03/11 10:29:49;;;;;;;;;;;8.50;99.90;;;;;;5030592;28;19912;-61
2024/03/11 10:32:31;;;;;;;;;;;8.50;99.90;;;;;;5036352;28;20392;-60
2024/03/11 10:34:56;;;;;;;;;;;8.50;99.90;;;;;;5032192;28;19913;-60
2024/03/11 10:37:22;;;;;;;;;;;8.50;99.90;;;;;;5040503;28;19909;-57
2024/03/11 10:39:48;;;;;;;;;;;8.40;99.90;;;;;;5033585;28;19909;-58
2024/03/11 10:42:26;;;;;;;;;;;8.20;99.90;;;;;;5044120;28;19917;-60
2024/03/11 10:44:52;;;;;;;;;;;8.10;99.90;;;;;;5032622;28;20296;-61
2024/03/11 10:47:18;;;;;;;;;;;8.10;99.90;;;;;;5031797;28;19916;-57
2024/03/11 10:49:47;;;;;;;;;;;8.20;99.90;;;;;;5041600;28;19967;-60
2024/03/11 10:52:15;;;;;;;;;;;8.40;99.90;;;;;;5037840;28;19909;-59
2024/03/11 10:54:42;;;;;;;;;;;8.50;99.90;;;;;;5039982;28;19905;-60
2024/03/11 10:57:11;;;;;;;;;;;8.40;99.90;;;;;;5031852;28;19923;-61
2024/03/11 10:59:41;;;;;;;;;;;8.50;99.90;;;;;;5039382;28;20391;-60
2024/03/11 11:02:08;;;;;;;;;;;8.60;99.90;;;;;;5032080;28;19916;-58
2024/03/11 11:04:34;;;;;;;;;;;8.60;99.90;;;;;;5031606;28;19919;-60
2024/03/11 11:07:02;;;;;;;;;;;8.70;99.90;;;;;;5047684;28;19913;-57
2024/03/11 11:09:29;;;;;;;;;;;8.70;99.90;;;;;;5031682;28;19908;-60
2024/03/11 11:11:55;;;;;;;;;;;8.70;99.90;;;;;;5039668;28;20284;-60
2024/03/11 11:14:21;;;;;;;;;;;9.00;99.90;;;;;;5037975;28;19905;-60
2024/03/11 11:16:49;;;;;;;;;;;9.10;99.90;;;;;;5041036;28;19908;-60
2024/03/11 11:19:22;;;;;;;;;;;9.20;99.90;;;;;;5039106;28;20373;-59
2024/03/11 11:21:51;;;;;;;;;;;9.30;99.90;;;;;;5039717;28;19905;-59
2024/03/11 11:24:26;;;;;;;;;;;9.60;99.90;;;;;;5031080;28;19912;-60
2024/03/11 11:26:54;;;;;;;;;;;9.90;99.90;;;;;;5047442;28;20396;-60
2024/03/11 11:29:24;;;;;;;;;;;10.00;99.90;;;;;;5045810;28;20288;-58
2024/03/11 11:32:13;;;;;;;;;;;10.10;99.90;;;;;;5042755;28;20363;-59
2024/03/11 11:34:44;;;;;;;;;;;10.10;99.90;;;;;;5047855;28;20312;-59
2024/03/11 11:37:13;;;;;;;;;;;10.30;99.90;;;;;;5037319;28;19908;-58
2024/03/11 11:39:39;;;;;;;;;;;10.30;99.90;;;;;;5038796;28;19915;-59
2024/03/11 11:42:06;;;;;;;;;;;10.00;99.90;;;;;;5031319;28;19909;-57
2024/03/11 11:44:33;;;;;;;;;;;9.90;99.90;;;;;;5038091;28;19917;-60
2024/03/11 11:47:05;;;;;;;;;;;9.90;99.90;;;;;;5038730;28;19920;-60
2024/03/11 11:49:34;;;;;;;;;;;9.90;99.90;;;;;;5037844;28;19996;-61
2024/03/11 11:52:02;;;;;;;;;;;9.80;99.90;;;;;;5030530;28;20300;-55
2024/03/11 11:54:29;;;;;;;;;;;9.80;99.90;;;;;;5030862;28;19909;-58
2024/03/11 11:57:24;;;;;;;;;;;10.00;99.90;;;;;;5030457;28;19913;-60
2024/03/11 11:59:56;;;;;;;;;;;10.20;99.90;;;;;;5038892;28;19913;-59
2024/03/11 12:02:28;;;;;;;;;;;10.40;99.90;;;;;;5042356;28;19905;-55
2024/03/11 12:04:57;;;;;;;;;;;10.50;99.90;;;;;;5047372;28;20289;-56
2024/03/11 12:07:23;;;;;;;;;;;10.50;99.90;;;;;;5045174;28;20058;-55
2024/03/11 12:09:53;;;;;;;;;;;10.40;99.90;;;;;;5033386;28;19920;-58
2024/03/11 12:12:32;;;;;;;;;;;10.30;99.90;;;;;;5038347;28;19920;-58
2024/03/11 12:14:58;;;;;;;;;;;10.60;99.90;;;;;;5033801;28;19908;-58
2024/03/11 12:17:29;;;;;;;;;;;10.80;99.90;;;;;;5043305;28;19913;-59
2024/03/11 12:20:20;;;;;;;;;;;11.00;99.90;;;;;;5032532;28;20386;-59
2024/03/11 12:22:47;;;;;;;;;;;11.10;99.90;;;;;;5041748;28;19932;-58
2024/03/11 12:25:13;;;;;;;;;;;11.40;99.90;;;;;;5041571;28;20399;-57
2024/03/11 12:27:40;;;;;;;;;;;11.10;99.90;;;;;;5039968;28;19959;-58
2024/03/11 12:30:09;;;;;;;;;;;11.00;99.90;;;;;;5040104;28;19919;-60
2024/03/11 12:32:34;;;;;;;;;;;10.80;99.90;;;;;;5041420;28;19920;-56
2024/03/11 12:35:00;;;;;;;;;;;10.70;99.90;;;;;;5042126;28;19909;-56
2024/03/11 12:37:26;;;;;;;;;;;10.60;99.90;;;;;;5035146;28;20372;-58
2024/03/11 12:39:51;;;;;;;;;;;10.60;99.90;;;;;;5038522;28;19912;-59
2024/03/11 12:42:27;;;;;;;;;;;10.70;99.90;;;;;;5039644;28;19909;-59
2024/03/11 12:44:56;;;;;;;;;;;11.00;99.90;;;;;;5038691;28;19963;-60
2024/03/11 12:47:21;;;;;;;;;;;11.00;99.90;;;;;;5039970;28;19920;-58
2024/03/11 12:49:50;;;;;;;;;;;11.10;99.90;;;;;;5036726;28;19909;-58
2024/03/11 12:52:17;;;;;;;;;;;11.20;99.90;;;;;;5029475;28;19912;-58
2024/03/11 12:54:43;;;;;;;;;;;11.40;99.90;;;;;;5037395;28;19909;-59
2024/03/11 12:57:12;;;;;;;;;;;11.70;99.90;;;;;;5029900;28;19913;-60
2024/03/11 12:59:42;;;;;;;;;;;11.60;99.90;;;;;;5037374;28;19948;-59
2024/03/11 13:02:09;;;;;;;;;;;11.70;99.90;;;;;;5032407;28;19917;-59
2024/03/11 13:04:36;;;;;;;;;;;11.60;99.90;;;;;;5031893;28;19917;-56
2024/03/11 13:07:09;;;;;;;;;;;11.70;99.90;;;;;;5037121;28;19909;-58
2024/03/11 13:09:35;;;;;;;;;;;11.80;99.90;;;;;;5037423;28;19916;-59
2024/03/11 13:12:02;;;;;;;;;;;11.90;99.90;;;;;;5037569;28;20292;-55
2024/03/11 13:14:27;;;;;;;;;;;11.90;99.90;;;;;;5029832;28;19912;-52
2024/03/11 13:16:53;;;;;;;;;;;11.90;99.90;;;;;;5037434;28;19913;-55
2024/03/11 13:19:19;;;;;;;;;;;11.90;99.90;;;;;;5028748;28;19962;-57
2024/03/11 13:21:55;;;;;;;;;;;11.90;99.90;;;;;;5030784;28;19905;-53
2024/03/11 13:24:23;;;;;;;;;;;12.10;99.90;;;;;;5034527;28;19909;-56
2024/03/11 13:26:50;;;;;;;;;;;12.20;99.90;;;;;;5037438;28;19949;-53
2024/03/11 13:29:16;;;;;;;;;;;12.40;99.90;;;;;;5042968;28;19909;-53
2024/03/11 13:31:43;;;;;;;;;;;12.40;99.90;;;;;;5031461;28;19979;-57
2024/03/11 13:34:08;;;;;;;;;;;12.20;99.90;;;;;;5029002;28;19967;-55
2024/03/11 13:36:34;;;;;;;;;;;12.20;99.90;;;;;;5045776;28;20395;-54
2024/03/11 13:39:01;;;;;;;;;;;12.20;99.90;;;;;;5032218;28;19951;-52
2024/03/11 13:41:27;;;;;;;;;;;12.20;99.90;;;;;;5041851;28;20216;-52
2024/03/11 13:43:53;;;;;;;;;;;12.30;99.90;;;;;;5029052;28;19917;-53
2024/03/11 13:46:20;;;;;;;;;;;12.40;99.90;;;;;;5035011;28;20503;-55
2024/03/11 13:48:46;;;;;;;;;;;12.40;99.90;;;;;;5038523;28;19959;-52
2024/03/11 13:51:13;;;;;;;;;;;12.30;99.90;;;;;;5034083;28;19940;-55
2024/03/11 13:53:38;;;;;;;;;;;12.10;99.90;;;;;;5032158;28;20368;-55
2024/03/11 13:56:05;;;;;;;;;;;12.10;99.90;;;;;;5036719;28;19984;-52
2024/03/11 13:58:31;;;;;;;;;;;12.00;99.90;;;;;;5036105;28;19956;-56
2024/03/11 14:00:56;;;;;;;;;;;12.00;99.90;;;;;;5032226;28;19956;-54
2024/03/11 14:03:22;;;;;;;;;;;12.10;99.90;;;;;;5033969;28;19917;-55
2024/03/11 14:05:49;;;;;;;;;;;12.10;99.90;;;;;;5037140;28;19913;-53
2024/03/11 14:08:17;;;;;;;;;;;12.10;99.90;;;;;;5045449;28;20280;-52
2024/03/11 14:10:48;;;;;;;;;;;12.10;99.90;;;;;;5043239;28;19962;-52
2024/03/11 14:13:14;;;;;;;;;;;12.00;99.90;;;;;;5032526;28;19971;-57
2024/03/11 14:15:39;;;;;;;;;;;12.00;99.90;;;;;;5041143;28;20464;-57
2024/03/11 14:18:08;;;;;;;;;;;12.00;99.90;;;;;;5038868;28;20365;-55
2024/03/11 14:20:33;;;;;;;;;;;11.90;99.90;;;;;;5040870;28;19916;-56
2024/03/11 14:23:00;;;;;;;;;;;12.00;99.90;;;;;;5035654;28;19917;-53
2024/03/11 14:25:32;;;;;;;;;;;12.20;99.90;;;;;;5043790;28;19909;-56
2024/03/11 14:27:59;;;;;;;;;;;12.30;99.90;;;;;;5031832;28;20409;-57